createdAt,value
2023-04-15T00:00:08.447Z,5.50
2023-04-15T00:01:08.702Z,5.60
2023-04-15T00:02:09.039Z,5.78
2023-04-15T00:03:09.445Z,5.86
2023-04-15T00:04:09.573Z,5.86
2023-04-15T00:05:09.830Z,5.85
2023-04-15T00:06:10.155Z,5.85
2023-04-15T00:07:10.368Z,5.82
2023-04-15T00:08:10.631Z,5.82
2023-04-15T00:09:10.900Z,5.82
2023-04-15T00:10:11.180Z,5.88
2023-04-15T00:11:11.462Z,5.93
2023-04-15T00:12:11.741Z,5.95
2023-04-15T00:13:12.009Z,5.95
2023-04-15T00:14:12.311Z,5.96
2023-04-15T00:15:12.616Z,5.96
2023-04-15T00:16:12.952Z,6.03
2023-04-15T00:17:13.132Z,6.04
2023-04-15T00:18:13.413Z,6.10
2023-04-15T00:19:13.682Z,6.13
2023-04-15T00:20:13.978Z,6.11
2023-04-15T00:21:14.279Z,6.09
2023-04-15T00:22:14.549Z,6.07
2023-04-15T00:23:14.852Z,6.09
2023-04-15T00:24:15.128Z,6.14
2023-04-15T00:25:15.419Z,6.16
2023-04-15T00:26:15.724Z,6.19
2023-04-15T00:27:15.964Z,6.22
2023-04-15T00:28:16.233Z,6.21
2023-04-15T00:29:16.505Z,6.16
2023-04-15T00:30:16.766Z,6.11
2023-04-15T00:31:17.216Z,6.09
2023-04-15T00:32:17.311Z,6.04
2023-04-15T00:33:17.582Z,5.98
2023-04-15T00:34:17.879Z,5.92
2023-04-15T00:35:18.135Z,5.89
2023-04-15T00:36:18.421Z,5.83
2023-04-15T00:37:18.709Z,5.81
2023-04-15T00:38:18.993Z,5.77
2023-04-15T00:39:19.272Z,5.74
2023-04-15T00:40:19.549Z,5.70
2023-04-15T00:41:19.808Z,5.66
2023-04-15T00:42:20.083Z,5.59
2023-04-15T00:43:20.355Z,5.57
2023-04-15T00:44:20.609Z,5.53
2023-04-15T00:45:20.892Z,5.49
2023-04-15T00:46:21.221Z,5.45
2023-04-15T00:47:21.469Z,5.40
2023-04-15T00:48:21.718Z,5.37
2023-04-15T00:49:22.007Z,5.32
2023-04-15T00:50:22.294Z,5.27
2023-04-15T00:51:22.606Z,5.27
2023-04-15T00:52:22.878Z,5.23
2023-04-15T00:53:23.143Z,5.20
2023-04-15T00:54:23.448Z,5.17
2023-04-15T00:55:23.721Z,5.14
2023-04-15T00:56:24.007Z,5.12
2023-04-15T00:57:24.316Z,5.09
2023-04-15T00:58:24.558Z,5.05
2023-04-15T00:59:24.834Z,5.05
2023-04-15T01:00:25.073Z,5.04
2023-04-15T01:01:25.490Z,5.02
2023-04-15T01:02:25.770Z,5.01
2023-04-15T01:03:26.198Z,4.96
2023-04-15T01:04:26.303Z,4.96
2023-04-15T01:05:26.516Z,4.92
2023-04-15T01:06:26.877Z,4.88
2023-04-15T01:07:27.134Z,4.84
2023-04-15T01:08:27.414Z,4.79
2023-04-15T01:09:27.664Z,4.79
2023-04-15T01:10:27.948Z,4.75
2023-04-15T01:11:28.233Z,4.75
2023-04-15T01:12:28.505Z,4.70
2023-04-15T01:13:28.780Z,4.69
2023-04-15T01:14:29.075Z,4.67
2023-04-15T01:15:29.358Z,4.65
2023-04-15T01:16:29.756Z,4.64
2023-04-15T01:17:30.050Z,4.61
2023-04-15T01:18:30.294Z,4.58
2023-04-15T01:19:30.560Z,4.57
2023-04-15T01:20:30.817Z,4.57
2023-04-15T01:21:31.101Z,4.55
2023-04-15T01:22:31.373Z,4.54
2023-04-15T01:23:31.622Z,4.52
2023-04-15T01:24:31.884Z,4.51
2023-04-15T01:25:32.170Z,4.50
2023-04-15T01:26:32.481Z,4.46
2023-04-15T01:27:32.746Z,4.44
2023-04-15T01:28:33.027Z,4.40
2023-04-15T01:29:33.287Z,4.34
2023-04-15T01:30:33.554Z,4.32
2023-04-15T01:31:33.897Z,4.26
2023-04-15T01:32:34.167Z,4.24
2023-04-15T01:33:34.439Z,4.25
2023-04-15T01:34:35.966Z,4.24
2023-04-15T01:35:35.023Z,4.24
2023-04-15T01:36:35.360Z,4.25
2023-04-15T01:37:35.591Z,4.25
2023-04-15T01:38:35.897Z,4.24
2023-04-15T01:39:36.146Z,4.24
2023-04-15T01:40:36.413Z,4.22
2023-04-15T01:41:36.705Z,4.21
2023-04-15T01:42:36.979Z,4.21
2023-04-15T01:43:37.277Z,4.19
2023-04-15T01:44:37.495Z,4.18
2023-04-15T01:45:37.768Z,4.18
2023-04-15T01:46:38.150Z,4.16
2023-04-15T01:47:38.403Z,4.16
2023-04-15T01:48:38.652Z,4.14
2023-04-15T01:49:38.957Z,4.14
2023-04-15T01:50:39.227Z,4.10
2023-04-15T01:51:39.563Z,4.12
2023-04-15T01:52:39.823Z,4.10
2023-04-15T01:53:40.087Z,4.08
2023-04-15T01:54:40.383Z,4.08
2023-04-15T01:55:40.687Z,4.08
2023-04-15T01:56:40.985Z,4.07
2023-04-15T01:57:41.273Z,4.07
2023-04-15T01:58:41.512Z,4.06
2023-04-15T01:59:41.787Z,4.06
2023-04-15T02:00:42.072Z,4.06
2023-04-15T02:01:42.336Z,4.03
2023-04-15T02:02:42.762Z,4.07
2023-04-15T02:03:43.032Z,4.07
2023-04-15T02:04:43.188Z,4.08
2023-04-15T02:05:43.444Z,4.10
2023-04-15T02:06:43.786Z,4.10
2023-04-15T02:07:44.009Z,4.10
2023-04-15T02:08:44.286Z,4.12
2023-04-15T02:09:44.582Z,4.12
2023-04-15T02:10:44.878Z,4.14
2023-04-15T02:11:45.181Z,4.18
2023-04-15T02:12:45.436Z,4.16
2023-04-15T02:13:45.727Z,4.15
2023-04-15T02:14:45.995Z,4.12
2023-04-15T02:15:46.297Z,4.12
2023-04-15T02:16:46.681Z,4.10
2023-04-15T02:17:46.957Z,4.06
2023-04-15T02:18:47.207Z,4.04
2023-04-15T02:19:47.446Z,4.01
2023-04-15T02:20:47.715Z,3.98
2023-04-15T02:21:48.029Z,3.96
2023-04-15T02:22:48.291Z,3.96
2023-04-15T02:23:48.526Z,3.90
2023-04-15T02:24:48.856Z,3.89
2023-04-15T02:25:53.907Z,3.86
2023-04-15T02:26:50.346Z,3.85
2023-04-15T02:27:49.682Z,3.85
2023-04-15T02:28:49.937Z,3.82
2023-04-15T02:29:50.218Z,3.80
2023-04-15T02:30:50.512Z,3.76
2023-04-15T02:31:50.821Z,3.72
2023-04-15T02:32:51.165Z,3.71
2023-04-15T02:33:51.416Z,3.68
2023-04-15T02:34:51.712Z,3.67
2023-04-15T02:35:52.029Z,3.67
2023-04-15T02:36:52.301Z,3.67
2023-04-15T02:37:52.601Z,3.67
2023-04-15T02:38:52.836Z,3.64
2023-04-15T02:39:53.110Z,3.65
2023-04-15T02:40:53.398Z,3.62
2023-04-15T02:41:53.697Z,3.61
2023-04-15T02:42:53.987Z,3.58
2023-04-15T02:43:54.253Z,3.54
2023-04-15T02:44:54.521Z,3.53
2023-04-15T02:45:54.794Z,3.53
2023-04-15T02:46:55.059Z,3.52
2023-04-15T02:47:55.351Z,3.50
2023-04-15T02:48:55.630Z,3.50
2023-04-15T02:50:02.910Z,3.46
2023-04-15T02:50:56.156Z,3.44
2023-04-15T02:51:56.470Z,3.43
2023-04-15T02:52:58.480Z,3.40
2023-04-15T02:53:57.054Z,3.39
2023-04-15T02:54:57.356Z,3.39
2023-04-15T02:55:57.691Z,3.39
2023-04-15T02:56:57.954Z,3.36
2023-04-15T02:57:58.225Z,3.33
2023-04-15T02:58:58.563Z,3.31
2023-04-15T02:59:58.780Z,3.31
2023-04-15T03:00:59.103Z,3.30
2023-04-15T03:01:59.372Z,3.28
2023-04-15T03:02:59.826Z,3.28
2023-04-15T03:04:00.109Z,3.25
2023-04-15T03:05:00.253Z,3.25
2023-04-15T03:06:00.529Z,3.25
2023-04-15T03:07:00.827Z,3.24
2023-04-15T03:08:01.218Z,3.24
2023-04-15T03:09:01.734Z,3.24
2023-04-15T03:10:01.660Z,3.28
2023-04-15T03:11:01.924Z,3.34
2023-04-15T03:12:02.185Z,3.47
2023-04-15T03:13:02.471Z,3.53
2023-04-15T03:14:02.746Z,3.62
2023-04-15T03:15:03.044Z,3.70
2023-04-15T03:16:03.343Z,3.78
2023-04-15T03:17:03.649Z,3.80
2023-04-15T03:18:03.902Z,3.82
2023-04-15T03:19:04.334Z,3.82
2023-04-15T03:20:04.490Z,3.78
2023-04-15T03:21:04.707Z,3.75
2023-04-15T03:22:04.973Z,3.68
2023-04-15T03:23:05.274Z,3.67
2023-04-15T03:24:05.572Z,3.62
2023-04-15T03:25:05.856Z,3.60
2023-04-15T03:26:06.161Z,3.58
2023-04-15T03:27:06.401Z,3.58
2023-04-15T03:28:06.672Z,3.58
2023-04-15T03:29:06.939Z,3.57
2023-04-15T03:30:07.244Z,3.54
2023-04-15T03:31:07.542Z,3.52
2023-04-15T03:32:07.757Z,3.49
2023-04-15T03:33:08.003Z,3.46
2023-04-15T03:34:08.293Z,3.42
2023-04-15T03:35:08.579Z,3.40
2023-04-15T03:36:08.835Z,3.40
2023-04-15T03:37:09.096Z,3.39
2023-04-15T03:38:09.385Z,3.34
2023-04-15T03:39:09.666Z,3.31
2023-04-15T03:40:10.006Z,3.31
2023-04-15T03:41:10.247Z,3.30
2023-04-15T03:42:10.548Z,3.31
2023-04-15T03:43:10.840Z,3.27
2023-04-15T03:44:11.109Z,3.24
2023-04-15T03:45:11.391Z,3.23
2023-04-15T03:46:11.724Z,3.23
2023-04-15T03:47:12.050Z,3.21
2023-04-15T03:48:17.740Z,3.20
2023-04-15T03:49:13.550Z,3.18
2023-04-15T03:50:12.895Z,3.16
2023-04-15T03:51:13.135Z,3.21
2023-04-15T03:52:13.397Z,3.24
2023-04-15T03:53:13.701Z,3.31
2023-04-15T03:54:13.950Z,3.43
2023-04-15T03:55:14.238Z,3.50
2023-04-15T03:56:14.520Z,3.57
2023-04-15T03:57:14.832Z,3.61
2023-04-15T03:58:15.117Z,3.61
2023-04-15T03:59:15.419Z,3.62
2023-04-15T04:00:15.760Z,3.61
2023-04-15T04:01:16.005Z,3.58
2023-04-15T04:02:16.367Z,3.54
2023-04-15T04:03:16.855Z,3.53
2023-04-15T04:04:16.984Z,3.52
2023-04-15T04:05:17.104Z,3.46
2023-04-15T04:06:17.379Z,3.44
2023-04-15T04:07:17.696Z,3.40
2023-04-15T04:08:17.997Z,3.39
2023-04-15T04:09:18.288Z,3.31
2023-04-15T04:10:18.573Z,3.25
2023-04-15T04:11:18.862Z,3.23
2023-04-15T04:12:19.173Z,3.16
2023-04-15T04:13:19.493Z,3.10
2023-04-15T04:14:19.811Z,3.05
2023-04-15T04:15:20.119Z,3.00
2023-04-15T04:16:20.470Z,2.97
2023-04-15T04:17:20.786Z,2.92
2023-04-15T04:18:21.076Z,2.87
2023-04-15T04:19:21.395Z,2.85
2023-04-15T04:20:21.669Z,2.81
2023-04-15T04:21:21.979Z,2.77
2023-04-15T04:22:22.321Z,2.73
2023-04-15T04:23:22.577Z,2.67
2023-04-15T04:24:22.857Z,2.67
2023-04-15T04:25:23.134Z,2.66
2023-04-15T04:26:23.421Z,2.66
2023-04-15T04:27:23.713Z,2.66
2023-04-15T04:28:23.973Z,2.64
2023-04-15T04:29:24.260Z,2.66
2023-04-15T04:30:24.542Z,2.69
2023-04-15T04:31:24.844Z,2.67
2023-04-15T04:32:25.206Z,2.64
2023-04-15T04:33:25.452Z,2.63
2023-04-15T04:34:25.753Z,2.63
2023-04-15T04:35:26.051Z,2.63
2023-04-15T04:36:26.322Z,2.59
2023-04-15T04:37:26.650Z,2.58
2023-04-15T04:38:26.971Z,2.58
2023-04-15T04:39:27.294Z,2.58
2023-04-15T04:40:27.573Z,2.58
2023-04-15T04:41:27.888Z,2.59
2023-04-15T04:42:28.194Z,2.59
2023-04-15T04:43:28.482Z,2.59
2023-04-15T04:44:28.780Z,2.61
2023-04-15T04:45:29.112Z,2.61
2023-04-15T04:46:29.408Z,2.63
2023-04-15T04:47:29.816Z,2.66
2023-04-15T04:48:30.003Z,2.67
2023-04-15T04:49:30.326Z,2.67
2023-04-15T04:50:30.632Z,2.67
2023-04-15T04:51:30.947Z,2.67
2023-04-15T04:52:31.210Z,2.66
2023-04-15T04:53:31.507Z,2.66
2023-04-15T04:54:31.847Z,2.64
2023-04-15T04:55:32.126Z,2.66
2023-04-15T04:56:32.396Z,2.67
2023-04-15T04:57:32.690Z,2.69
2023-04-15T04:58:33.012Z,2.71
2023-04-15T04:59:33.320Z,2.73
2023-04-15T05:00:33.688Z,2.74
2023-04-15T05:01:33.996Z,2.81
2023-04-15T05:02:34.383Z,2.87
2023-04-15T05:03:34.670Z,2.92
2023-04-15T05:04:34.788Z,2.97
2023-04-15T05:05:35.149Z,3.00
2023-04-15T05:06:35.455Z,3.00
2023-04-15T05:07:35.744Z,2.98
2023-04-15T05:08:36.059Z,3.03
2023-04-15T05:09:36.382Z,3.02
2023-04-15T05:10:36.751Z,3.05
2023-04-15T05:11:37.015Z,3.05
2023-04-15T05:12:37.330Z,3.09
2023-04-15T05:13:37.631Z,3.10
2023-04-15T05:14:38.140Z,3.15
2023-04-15T05:15:38.312Z,3.23
2023-04-15T05:16:38.557Z,3.31
2023-04-15T05:17:38.882Z,3.42
2023-04-15T05:18:39.156Z,3.49
2023-04-15T05:19:39.473Z,3.58
2023-04-15T05:20:39.838Z,3.62
2023-04-15T05:21:40.041Z,3.68
2023-04-15T05:22:40.354Z,3.76
2023-04-15T05:23:40.671Z,3.83
2023-04-15T05:24:40.974Z,3.90
2023-04-15T05:25:41.306Z,3.96
2023-04-15T05:26:42.777Z,4.03
2023-04-15T05:27:41.835Z,4.12
2023-04-15T05:28:42.143Z,4.25
2023-04-15T05:29:42.458Z,4.47
2023-04-15T05:30:42.816Z,4.88
2023-04-15T05:31:43.138Z,5.40
2023-04-15T05:32:43.494Z,6.04
2023-04-15T05:33:43.652Z,6.69
2023-04-15T05:34:43.975Z,7.15
2023-04-15T05:35:44.288Z,7.56
2023-04-15T05:36:44.572Z,8.12
2023-04-15T05:37:44.887Z,8.60
2023-04-15T05:38:45.206Z,9.01
2023-04-15T05:39:45.511Z,9.43
2023-04-15T05:40:45.825Z,9.70
2023-04-15T05:41:46.131Z,9.94
2023-04-15T05:42:46.477Z,10.30
2023-04-15T05:43:46.788Z,10.86
2023-04-15T05:44:47.111Z,11.61
2023-04-15T05:45:47.446Z,12.34
2023-04-15T05:46:47.756Z,13.06
2023-04-15T05:47:48.081Z,13.74
2023-04-15T05:48:48.372Z,14.39
2023-04-15T05:49:48.704Z,15.05
2023-04-15T05:50:49.032Z,15.56
2023-04-15T05:51:49.351Z,15.97
2023-04-15T05:52:49.709Z,16.42
2023-04-15T05:53:50.027Z,16.90
2023-04-15T05:54:50.355Z,17.29
2023-04-15T05:55:50.679Z,17.69
2023-04-15T05:56:51.034Z,18.06
2023-04-15T05:57:51.353Z,18.36
2023-04-15T05:58:53.683Z,18.46
2023-04-15T05:59:51.998Z,18.50
2023-04-15T06:00:52.359Z,18.68
2023-04-15T06:01:52.616Z,18.87
2023-04-15T06:02:52.833Z,18.92
2023-04-15T06:03:53.294Z,18.98
2023-04-15T06:04:53.360Z,19.28
2023-04-15T06:05:53.657Z,18.77
2023-04-15T06:06:53.881Z,18.10
2023-04-15T06:07:54.193Z,18.25
2023-04-15T06:08:54.514Z,17.99
2023-04-15T06:09:54.856Z,17.70
2023-04-15T06:10:55.221Z,17.28
2023-04-15T06:11:55.572Z,16.81
2023-04-15T06:12:55.751Z,16.27
2023-04-15T06:13:56.041Z,15.24
2023-04-15T06:14:57.553Z,14.74
2023-04-15T06:15:56.692Z,14.61
2023-04-15T06:16:56.811Z,14.72
2023-04-15T06:17:57.180Z,14.95
2023-04-15T06:18:57.433Z,15.28
2023-04-15T06:19:57.745Z,15.24
2023-04-15T06:20:58.060Z,14.49
2023-04-15T06:21:58.400Z,13.58
2023-04-15T06:22:58.578Z,13.27
2023-04-15T06:23:58.889Z,12.87
2023-04-15T06:24:59.228Z,12.21
2023-04-15T06:25:59.572Z,11.96
2023-04-15T06:26:59.763Z,11.80
2023-04-15T06:28:00.055Z,11.54
2023-04-15T06:29:00.646Z,11.65
2023-04-15T06:30:00.692Z,11.61
2023-04-15T06:31:00.936Z,11.65
2023-04-15T06:32:01.254Z,11.78
2023-04-15T06:33:01.763Z,11.71
2023-04-15T06:34:01.890Z,11.80
2023-04-15T06:35:02.238Z,12.02
2023-04-15T06:36:02.482Z,12.19
2023-04-15T06:37:04.467Z,12.38
2023-04-15T06:38:02.998Z,12.52
2023-04-15T06:39:03.586Z,12.69
2023-04-15T06:40:03.640Z,12.79
2023-04-15T06:41:04.002Z,12.88
2023-04-15T06:42:04.302Z,13.06
2023-04-15T06:43:04.621Z,13.24
2023-04-15T06:44:04.974Z,13.44
2023-04-15T06:45:05.276Z,13.61
2023-04-15T06:46:05.616Z,13.70
2023-04-15T06:47:05.900Z,13.84
2023-04-15T06:48:06.200Z,14.10
2023-04-15T06:49:06.492Z,14.42
2023-04-15T06:50:06.821Z,14.62
2023-04-15T06:51:07.142Z,14.95
2023-04-15T06:52:07.522Z,15.39
2023-04-15T06:53:07.831Z,15.82
2023-04-15T06:54:08.066Z,16.16
2023-04-15T06:55:08.263Z,16.58
2023-04-15T06:56:08.605Z,17.00
2023-04-15T06:57:08.832Z,17.38
2023-04-15T06:58:09.137Z,17.64
2023-04-15T06:59:09.461Z,17.92
2023-04-15T07:00:09.804Z,18.12
2023-04-15T07:01:10.212Z,18.29
2023-04-15T07:02:10.388Z,18.64
2023-04-15T07:03:10.617Z,19.10
2023-04-15T07:04:11.006Z,19.33
2023-04-15T07:05:11.144Z,19.65
2023-04-15T07:06:11.519Z,19.98
2023-04-15T07:07:11.726Z,20.38
2023-04-15T07:08:12.090Z,20.64
2023-04-15T07:09:12.289Z,21.11
2023-04-15T07:10:12.641Z,21.46
2023-04-15T07:11:12.952Z,22.12
2023-04-15T07:12:13.273Z,23.22
2023-04-15T07:13:13.580Z,24.17
2023-04-15T07:14:13.887Z,24.95
2023-04-15T07:15:14.255Z,25.05
2023-04-15T07:16:14.483Z,25.00
2023-04-15T07:17:14.765Z,24.97
2023-04-15T07:18:15.113Z,25.01
2023-04-15T07:19:15.293Z,24.52
2023-04-15T07:20:15.625Z,24.13
2023-04-15T07:21:15.974Z,22.83
2023-04-15T07:22:16.258Z,22.67
2023-04-15T07:23:16.581Z,23.15
2023-04-15T07:24:16.914Z,23.95
2023-04-15T07:25:17.229Z,23.12
2023-04-15T07:26:17.589Z,22.20
2023-04-15T07:27:17.966Z,21.35
2023-04-15T07:28:18.125Z,21.32
2023-04-15T07:29:18.459Z,21.16
2023-04-15T07:30:18.832Z,20.99
2023-04-15T07:31:19.068Z,20.27
2023-04-15T07:32:19.421Z,20.06
2023-04-15T07:33:19.608Z,19.88
2023-04-15T07:34:19.922Z,19.40
2023-04-15T07:35:20.223Z,19.24
2023-04-15T07:36:20.551Z,19.35
2023-04-15T07:37:20.779Z,19.18
2023-04-15T07:38:21.080Z,18.95
2023-04-15T07:39:21.405Z,18.95
2023-04-15T07:40:21.796Z,18.70
2023-04-15T07:41:21.995Z,18.74
2023-04-15T07:42:22.202Z,18.80
2023-04-15T07:43:22.531Z,18.92
2023-04-15T07:44:22.723Z,18.73
2023-04-15T07:45:23.072Z,18.74
2023-04-15T07:46:23.413Z,18.28
2023-04-15T07:47:23.677Z,18.00
2023-04-15T07:48:23.830Z,18.07
2023-04-15T07:49:24.161Z,18.04
2023-04-15T07:50:24.489Z,17.70
2023-04-15T07:51:24.794Z,17.35
2023-04-15T07:52:25.129Z,16.99
2023-04-15T07:53:25.450Z,16.99
2023-04-15T07:54:25.772Z,16.92
2023-04-15T07:55:28.159Z,16.58
2023-04-15T07:56:26.360Z,16.50
2023-04-15T07:57:26.685Z,16.52
2023-04-15T07:58:26.977Z,16.58
2023-04-15T07:59:27.308Z,16.71
2023-04-15T08:00:27.650Z,16.90
2023-04-15T08:01:27.983Z,17.06
2023-04-15T08:02:28.417Z,17.03
2023-04-15T08:03:28.794Z,17.07
2023-04-15T08:04:28.954Z,17.06
2023-04-15T08:05:29.206Z,17.17
2023-04-15T08:06:29.425Z,17.22
2023-04-15T08:07:29.705Z,17.53
2023-04-15T08:08:29.886Z,17.94
2023-04-15T08:09:30.122Z,18.04
2023-04-15T08:10:30.432Z,18.07
2023-04-15T08:11:30.767Z,18.15
2023-04-15T08:12:31.149Z,18.28
2023-04-15T08:13:31.320Z,18.40
2023-04-15T08:14:31.619Z,18.54
2023-04-15T08:15:31.910Z,18.68
2023-04-15T08:16:32.447Z,18.97
2023-04-15T08:17:32.475Z,19.23
2023-04-15T08:18:32.781Z,19.25
2023-04-15T08:19:33.094Z,19.43
2023-04-15T08:20:33.397Z,19.43
2023-04-15T08:21:33.734Z,19.32
2023-04-15T08:22:34.069Z,19.06
2023-04-15T08:23:34.368Z,18.84
2023-04-15T08:24:34.679Z,18.72
2023-04-15T08:25:35.039Z,18.62
2023-04-15T08:26:35.366Z,18.54
2023-04-15T08:27:35.558Z,18.37
2023-04-15T08:28:35.893Z,18.13
2023-04-15T08:29:36.207Z,18.13
2023-04-15T08:30:36.548Z,18.24
2023-04-15T08:31:36.926Z,18.46
2023-04-15T08:32:37.152Z,18.76
2023-04-15T08:33:37.463Z,18.84
2023-04-15T08:34:37.688Z,19.01
2023-04-15T08:35:38.019Z,19.17
2023-04-15T08:36:38.274Z,19.10
2023-04-15T08:37:38.441Z,19.24
2023-04-15T08:38:38.792Z,19.33
2023-04-15T08:39:38.988Z,19.25
2023-04-15T08:40:39.321Z,19.31
2023-04-15T08:41:39.648Z,19.23
2023-04-15T08:42:39.952Z,19.10
2023-04-15T08:43:40.275Z,18.76
2023-04-15T08:44:40.580Z,18.57
2023-04-15T08:45:40.901Z,18.44
2023-04-15T08:46:41.288Z,18.44
2023-04-15T08:47:41.562Z,18.44
2023-04-15T08:48:41.717Z,18.36
2023-04-15T08:49:42.064Z,18.02
2023-04-15T08:50:42.383Z,17.85
2023-04-15T08:51:42.707Z,17.81
2023-04-15T08:52:43.023Z,17.26
2023-04-15T08:53:43.386Z,16.73
2023-04-15T08:54:43.643Z,16.52
2023-04-15T08:55:43.965Z,16.18
2023-04-15T08:56:44.283Z,16.04
2023-04-15T08:57:44.575Z,15.81
2023-04-15T08:58:44.939Z,15.60
2023-04-15T08:59:45.215Z,15.52
2023-04-15T09:00:45.536Z,15.42
2023-04-15T09:01:45.920Z,15.24
2023-04-15T09:02:46.224Z,15.19
2023-04-15T09:03:46.493Z,15.31
2023-04-15T09:04:46.623Z,15.42
2023-04-15T09:05:46.905Z,15.27
2023-04-15T09:06:47.252Z,15.11
2023-04-15T09:07:47.523Z,15.12
2023-04-15T09:08:47.733Z,15.09
2023-04-15T09:09:48.037Z,15.28
2023-04-15T09:10:48.341Z,15.36
2023-04-15T09:11:48.668Z,15.33
2023-04-15T09:12:48.956Z,15.17
2023-04-15T09:13:49.272Z,15.09
2023-04-15T09:14:49.583Z,15.17
2023-04-15T09:15:49.886Z,15.20
2023-04-15T09:16:50.584Z,15.27
2023-04-15T09:17:50.481Z,15.31
2023-04-15T09:18:50.756Z,15.48
2023-04-15T09:19:51.105Z,15.64
2023-04-15T09:20:51.344Z,15.76
2023-04-15T09:21:51.626Z,15.79
2023-04-15T09:22:51.825Z,15.54
2023-04-15T09:23:52.042Z,15.76
2023-04-15T09:24:52.392Z,15.92
2023-04-15T09:25:52.624Z,15.86
2023-04-15T09:26:52.931Z,15.64
2023-04-15T09:27:53.223Z,15.54
2023-04-15T09:28:53.593Z,15.59
2023-04-15T09:29:53.898Z,15.61
2023-04-15T09:30:54.250Z,15.72
2023-04-15T09:31:54.547Z,15.86
2023-04-15T09:32:54.850Z,15.96
2023-04-15T09:33:55.164Z,15.93
2023-04-15T09:34:55.485Z,16.01
2023-04-15T09:35:55.795Z,15.99
2023-04-15T09:36:56.179Z,15.67
2023-04-15T09:37:56.420Z,15.57
2023-04-15T09:38:56.773Z,15.63
2023-04-15T09:39:57.091Z,15.49
2023-04-15T09:40:57.415Z,15.49
2023-04-15T09:41:57.742Z,15.70
2023-04-15T09:42:58.098Z,15.64
2023-04-15T09:43:58.404Z,15.75
2023-04-15T09:44:58.762Z,15.78
2023-04-15T09:45:59.119Z,15.64
2023-04-15T09:46:59.447Z,15.60
2023-04-15T09:47:59.709Z,15.52
2023-04-15T09:48:59.985Z,15.54
2023-04-15T09:50:00.535Z,15.54
2023-04-15T09:51:00.670Z,15.64
2023-04-15T09:52:05.512Z,15.74
2023-04-15T09:53:02.258Z,15.75
2023-04-15T09:54:01.787Z,15.85
2023-04-15T09:55:01.862Z,15.61
2023-04-15T09:56:02.200Z,15.39
2023-04-15T09:57:02.543Z,15.38
2023-04-15T09:58:02.767Z,15.43
2023-04-15T09:59:03.087Z,15.49
2023-04-15T10:00:03.366Z,15.36
2023-04-15T10:01:03.703Z,15.35
2023-04-15T10:02:04.093Z,15.24
2023-04-15T10:03:04.438Z,15.21
2023-04-15T10:04:04.998Z,15.35
2023-04-15T10:05:04.896Z,15.20
2023-04-15T10:06:05.184Z,15.05
2023-04-15T10:07:05.544Z,14.99
2023-04-15T10:08:05.815Z,14.95
2023-04-15T10:09:06.097Z,15.03
2023-04-15T10:10:06.409Z,15.09
2023-04-15T10:11:06.712Z,15.17
2023-04-15T10:12:07.023Z,15.15
2023-04-15T10:13:07.336Z,15.03
2023-04-15T10:14:07.654Z,15.21
2023-04-15T10:15:07.957Z,15.42
2023-04-15T10:16:08.339Z,15.57
2023-04-15T10:17:08.591Z,15.63
2023-04-15T10:18:08.905Z,15.79
2023-04-15T10:19:09.496Z,15.89
2023-04-15T10:20:09.468Z,15.92
2023-04-15T10:21:09.802Z,15.88
2023-04-15T10:22:10.172Z,15.89
2023-04-15T10:23:12.832Z,15.96
2023-04-15T10:24:10.691Z,16.03
2023-04-15T10:25:11.017Z,16.00
2023-04-15T10:26:11.352Z,15.92
2023-04-15T10:27:11.669Z,15.75
2023-04-15T10:28:11.969Z,15.72
2023-04-15T10:29:12.261Z,15.75
2023-04-15T10:30:12.560Z,15.67
2023-04-15T10:31:12.893Z,15.63
2023-04-15T10:32:13.174Z,15.63
2023-04-15T10:33:13.489Z,15.59
2023-04-15T10:34:13.839Z,15.66
2023-04-15T10:35:14.162Z,15.79
2023-04-15T10:36:14.483Z,15.78
2023-04-15T10:37:14.817Z,15.94
2023-04-15T10:38:15.137Z,15.81
2023-04-15T10:39:15.439Z,15.78
2023-04-15T10:40:15.762Z,15.79
2023-04-15T10:41:17.747Z,15.67
2023-04-15T10:42:16.326Z,15.76
2023-04-15T10:43:16.644Z,15.96
2023-04-15T10:44:16.936Z,16.01
2023-04-15T10:45:17.287Z,16.16
2023-04-15T10:46:17.520Z,16.27
2023-04-15T10:47:17.836Z,16.25
2023-04-15T10:48:18.183Z,16.33
2023-04-15T10:49:18.347Z,16.35
2023-04-15T10:50:18.628Z,16.48
2023-04-15T10:51:18.917Z,16.59
2023-04-15T10:52:19.239Z,16.63
2023-04-15T10:53:21.733Z,16.71
2023-04-15T10:54:19.883Z,16.77
2023-04-15T10:55:20.182Z,16.65
2023-04-15T10:56:20.524Z,16.41
2023-04-15T10:57:20.833Z,16.22
2023-04-15T10:58:21.131Z,16.11
2023-04-15T10:59:22.386Z,15.92
2023-04-15T11:00:21.729Z,15.86
2023-04-15T11:01:22.060Z,15.68
2023-04-15T11:02:22.593Z,15.82
2023-04-15T11:03:22.798Z,15.84
2023-04-15T11:04:23.020Z,15.64
2023-04-15T11:05:23.308Z,15.64
2023-04-15T11:06:23.601Z,15.64
2023-04-15T11:07:23.947Z,15.84
2023-04-15T11:08:24.246Z,15.70
2023-04-15T11:09:24.538Z,15.59
2023-04-15T11:10:24.839Z,15.60
2023-04-15T11:11:25.139Z,15.57
2023-04-15T11:12:25.478Z,15.45
2023-04-15T11:13:25.805Z,15.30
2023-04-15T11:14:26.103Z,15.45
2023-04-15T11:15:26.419Z,15.51
2023-04-15T11:16:26.728Z,15.70
2023-04-15T11:17:27.079Z,15.84
2023-04-15T11:18:27.355Z,15.92
2023-04-15T11:19:27.645Z,15.94
2023-04-15T11:20:27.970Z,15.78
2023-04-15T11:21:28.284Z,15.72
2023-04-15T11:22:28.615Z,15.68
2023-04-15T11:23:28.824Z,15.61
2023-04-15T11:24:29.154Z,15.64
2023-04-15T11:25:29.466Z,15.67
2023-04-15T11:26:29.760Z,15.52
2023-04-15T11:27:30.116Z,15.64
2023-04-15T11:28:30.448Z,15.66
2023-04-15T11:29:30.747Z,15.63
2023-04-15T11:30:31.167Z,15.60
2023-04-15T11:31:31.342Z,15.67
2023-04-15T11:32:31.693Z,15.66
2023-04-15T11:33:32.007Z,15.72
2023-04-15T11:34:33.697Z,15.74
2023-04-15T11:35:32.600Z,15.84
2023-04-15T11:36:32.936Z,15.92
2023-04-15T11:37:33.233Z,15.82
2023-04-15T11:38:33.569Z,15.70
2023-04-15T11:39:33.847Z,15.63
2023-04-15T11:40:34.175Z,15.61
2023-04-15T11:41:34.486Z,15.61
2023-04-15T11:42:48.699Z,15.68
2023-04-15T11:43:36.064Z,15.61
2023-04-15T11:44:35.383Z,15.51
2023-04-15T11:45:35.744Z,15.42
2023-04-15T11:46:36.022Z,15.31
2023-04-15T11:47:36.433Z,15.27
2023-04-15T11:48:36.685Z,15.36
2023-04-15T11:49:37.000Z,15.39
2023-04-15T11:50:37.296Z,15.35
2023-04-15T11:51:37.598Z,15.43
2023-04-15T11:52:37.934Z,15.52
2023-04-15T11:53:38.234Z,15.70
2023-04-15T11:54:38.555Z,15.93
2023-04-15T11:55:38.838Z,16.04
2023-04-15T11:56:39.149Z,16.06
2023-04-15T11:57:39.450Z,15.74
2023-04-15T11:58:39.770Z,15.72
2023-04-15T11:59:45.230Z,15.72
2023-04-15T12:00:41.431Z,15.82
2023-04-15T12:01:40.660Z,15.99
2023-04-15T12:02:41.058Z,16.12
2023-04-15T12:03:41.699Z,16.25
2023-04-15T12:04:41.801Z,16.37
2023-04-15T12:05:41.867Z,16.42
2023-04-15T12:06:42.247Z,16.52
2023-04-15T12:07:42.392Z,16.45
2023-04-15T12:08:42.687Z,16.52
2023-04-15T12:09:43.026Z,16.41
2023-04-15T12:10:43.308Z,16.16
2023-04-15T12:11:43.663Z,15.84
2023-04-15T12:12:43.967Z,15.61
2023-04-15T12:13:44.288Z,15.46
2023-04-15T12:14:44.578Z,15.12
2023-04-15T12:15:44.956Z,14.93
2023-04-15T12:16:48.632Z,14.98
2023-04-15T12:17:51.546Z,14.81
2023-04-15T12:18:46.802Z,14.69
2023-04-15T12:19:46.077Z,14.72
2023-04-15T12:20:46.389Z,14.74
2023-04-15T12:21:46.657Z,14.75
2023-04-15T12:22:46.854Z,14.64
2023-04-15T12:23:47.193Z,14.54
2023-04-15T12:24:47.521Z,14.37
2023-04-15T12:25:47.818Z,14.20
2023-04-15T12:26:48.141Z,14.10
2023-04-15T12:27:48.474Z,14.01
2023-04-15T12:28:48.759Z,13.98
2023-04-15T12:29:49.066Z,13.91
2023-04-15T12:30:49.382Z,13.84
2023-04-15T12:31:49.707Z,13.79
2023-04-15T12:32:50.105Z,13.74
2023-04-15T12:33:50.246Z,13.77
2023-04-15T12:34:50.556Z,13.80
2023-04-15T12:35:50.865Z,13.79
2023-04-15T12:36:51.210Z,13.77
2023-04-15T12:37:51.515Z,13.74
2023-04-15T12:38:51.831Z,13.63
2023-04-15T12:39:52.124Z,13.55
2023-04-15T12:40:52.418Z,13.56
2023-04-15T12:41:52.750Z,13.49
2023-04-15T12:42:53.086Z,13.51
2023-04-15T12:43:53.436Z,13.49
2023-04-15T12:44:53.721Z,13.44
2023-04-15T12:45:54.029Z,13.43
2023-04-15T12:46:54.481Z,13.54
2023-04-15T12:47:54.713Z,13.58
2023-04-15T12:48:55.000Z,13.55
2023-04-15T12:49:55.344Z,13.47
2023-04-15T12:50:55.675Z,13.46
2023-04-15T12:51:56.050Z,13.51
2023-04-15T12:52:56.358Z,13.56
2023-04-15T12:53:56.646Z,13.54
2023-04-15T12:54:56.860Z,13.54
2023-04-15T12:55:57.150Z,13.59
2023-04-15T12:56:57.518Z,13.65
2023-04-15T12:57:57.781Z,13.61
2023-04-15T12:58:58.098Z,13.59
2023-04-15T12:59:58.399Z,13.55
2023-04-15T13:00:58.694Z,13.51
2023-04-15T13:01:59.119Z,13.33
2023-04-15T13:02:59.331Z,13.27
2023-04-15T13:03:59.734Z,13.18
2023-04-15T13:04:59.900Z,13.15
2023-04-15T13:06:00.104Z,13.17
2023-04-15T13:07:00.359Z,13.20